• Join FlightAware (Why Join?)
  • Login
  • US Flag 
01:22AM EDT


 

Airport Tracker/Info


-or-


 

Live Flight TrackerFlight Track Log ✈ N777HF ✈ 15-Jun-2013 ✈ KTRK - KWVI

Flight Track Log - Related Links

Times and Time Zones

All times are in EDT time to prevent confusion due to time zone crossing. See the N777HF flight status page for this flight to view local times or setup timezone preferences in your user account.

Time Position Orientation Groundspeed Altitude Reporting Facility
EDT Latitude Longitude Course Direction KTS MPH feet Rate Location/Type
08:31PM 39.2631 -120.1805 209° Southwest  Level Estimated
08:32PM 39.2061 -120.2213 209° Southwest  Level Estimated
08:33PM 39.1492 -120.2620 209° Southwest  Level Estimated
08:33PM 39.0136 -120.2733 211° Southwest 230 265 16,500  Level Oakland Center
08:34PM 39.0922 -120.3027 209° Southwest  Level Estimated
08:34PM 38.9514 -120.3164 208° Southwest 251 289 16,500  Level Oakland Center
08:35PM 39.0352 -120.3434 209° Southwest  Level Estimated
08:35PM 38.8897 -120.3564 207° Southwest 250 288 16,500  Level Oakland Center
08:36PM 38.9782 -120.3839 209° Southwest  Level Estimated
08:36PM 38.8317 -120.4042 213° Southwest 249 287 16,500  Level Oakland Center
08:37PM 38.9211 -120.4244 209° Southwest  Level Estimated
08:37PM 38.7728 -120.4469 210° Southwest 244 281 16,500  Level Oakland Center
08:38PM 38.8641 -120.4648 209° Southwest  Level Estimated
08:38PM 38.7092 -120.4817 203° Southwest 247 284 16,500  Level Oakland Center
08:39PM 38.6328 -120.5250 204° Southwest 249 287 16,500  Level Oakland Center
08:40PM 38.5697 -120.5592 203° Southwest 246 283 16,500  Level Oakland Center
08:41PM 38.5067 -120.5958 204° Southwest 248 285 16,500  Level Oakland Center
08:42PM 38.4433 -120.6317 204° Southwest 249 287 16,500  Level Oakland Center
08:43PM 38.3803 -120.6664 203° Southwest 246 283 16,500  Level Oakland Center
08:45PM 38.3164 -120.7019 204° Southwest 249 287 16,500  Level Oakland Center
08:46PM 38.2531 -120.7369 203° Southwest 248 285 16,500  Level Oakland Center
08:47PM 38.1886 -120.7733 204° Southwest 251 289 16,500  Level Oakland Center
08:48PM 38.1258 -120.8081 204° Southwest 247 284 16,500  Level Oakland Center
08:49PM 38.0611 -120.8431 203° Southwest 249 287 16,500  Level Oakland Center
08:50PM 37.9975 -120.8778 203° Southwest 249 287 16,500  Level Oakland Center
08:51PM 37.9336 -120.9142 204° Southwest 251 289 16,500  Level Oakland Center
08:52PM 37.8692 -120.9481 203° Southwest 250 288 16,500  Level Oakland Center
08:53PM 37.8047 -120.9844 204° Southwest 252 290 16,500  Level Oakland Center
08:54PM 37.7403 -121.0194 203° Southwest 252 290 16,500  Level Oakland Center
08:55PM 37.6667 -121.0667 207° Southwest 256 295 16,500  Level Northern Cal TRACON
08:56PM 37.6000 -121.1000 202° Southwest 251 289 16,500  Level Northern Cal TRACON
08:57PM 37.5333 -121.1333 202° Southwest 252 290 16,500  Level Northern Cal TRACON
08:58PM 37.4667 -121.1667 202° Southwest 255 293 16,500  Level Northern Cal TRACON
08:59PM 37.4000 -121.2167 211° Southwest 253 291 16,500 -180 Level Northern Cal TRACON
09:00PM 37.3394 -121.2386 196° South 255 293 16,200 -900 Descending Oakland Center
09:01PM 37.2689 -121.2775 204° Southwest 271 312 14,700 -1,560 Descending Oakland Center
09:02PM 37.1967 -121.3158 203° Southwest 281 323 13,100 -1,560 Descending Oakland Center
09:03PM 37.1253 -121.3547 203° Southwest 279 321 11,600 -1,260 Descending Oakland Center
09:04PM 37.0544 -121.3919 203° Southwest 268 308 10,600 -840 Descending Oakland Center
09:05PM 36.9944 -121.4292 206° Southwest 247 284 9,900 -600 Descending Oakland Center
09:06PM 36.9372 -121.4714 211° Southwest 245 282 9,500 -1,200 Descending Oakland Center
09:08PM 36.8667 -121.6167 239° Southwest 208 239 6,500 -1,080 Descending Northern Cal TRACON
09:09PM 36.8333 -121.6667 230° Southwest 211 243 6,500 -600 Level Northern Cal TRACON
09:10PM 36.8000 -121.7333 238° Southwest 225 259 5,400 -1,380 Descending Northern Cal TRACON
09:11PM 36.7500 -121.7833 219° Southwest 225 259 3,900 -1,200 Descending Northern Cal TRACON
09:12PM 36.7333 -121.8500 253° West 194 223 3,100 -480 Descending Northern Cal TRACON
09:13PM 36.7667 -121.8833 321° Northwest 158 182 3,000 -360 Descending Northern Cal TRACON
09:14PM 36.8000 -121.8667 22° Northeast 152 175 2,400 -360 Descending Northern Cal TRACON
09:15PM 36.8500 -121.8667 360° North 137 158 2,300 -420 Descending Northern Cal TRACON
09:16PM 36.8667 -121.8500 39° Northeast 121 139 1,600 -660 Descending Northern Cal TRACON
09:17PM 36.9000 -121.8167 39° Northeast 127 146 1,000 -660 Descending Northern Cal TRACON
09:18PM 36.9333 -121.8000 22° Northeast 119 137 300 -360 Descending Northern Cal TRACON
09:19PM 36.9500 -121.7667 58° Northeast 118 136 300  Level Northern Cal TRACON
09:21PM 36.9333 -121.7833 219° Southwest  Level FlightAware Approximate
09:28PM 36.9357 -121.7896 219° Southwest  Level Estimated
09:29PM 36.9333 -121.7833 219° Southwest  Level FlightAware Approximate
09:30PM 36.9357 -121.7896 219° Southwest  Level Estimated
09:31PM 36.9333 -121.7833 219° Southwest  Level FlightAware Approximate
09:32PM 36.9357 -121.7896 219° Southwest  Level Estimated
09:33PM 36.9333 -121.7833 219° Southwest  Level FlightAware Approximate
09:34PM 36.9357 -121.7896 219° Southwest  Level Estimated
09:35PM 36.9333 -121.7833 219° Southwest  Level FlightAware Approximate